Decoded Metar for LFRC (CHERBOURG in FRANCE) (IATA:CER) | Meteo·Mobile Aviation Weather
aviador You're here:

LFRC Decoded Metar

CHERBOURG in FRANCE
Report Time2019-10-19 21:30:00
UTC Time2019-10-19 21:51:58
Flight Rules vfr VFR
Wind200° at 03 kt
W.Decomp.*RWY 28: 0.6 kt HW 2.9 kt LCW
Visibility9999 m
Phenomena:N/A
Clouds:N/A
Expected CloudBase > 400 ft AGL from Temp-Dew spread
CeilingNone
Temp08°C (ISA -6)
Dew Point07°C (93% RH)
AAT6.2°C
QNH1006 hPa
Density Alt98 ft
Elevation453 ft
Report Wrong Elevation
Raw Report
METAR LFRC 192130Z AUTO 20003KT 170V260 CAVOK 08/07 Q1006=

Extra information for LFRC:More info

Metar Taf Metar & Taf Last 4 Metars F.Rules Stats Wind Profile Meteogram Temp Stats Airport Information Weather charts Add Link Nearby VenuesMetar ALERT Operation Metar Decoded Social comments